Etusivu
METAR-TAF:

METAR-TAF

Lentoasemat :

Waskaganish, Quebec, Kanada

Leveyspiiri: 51-29N, Pituuspiiri: 078-45W, korkeus merenpinnasta: 23 m

Tämänhetkinen sää

Tämä raportti tehtiin 20 tuntia ja 9 minuuttia sitten, kello 14.00 UTC
Tuuli 9 kn luoteesta puuskistuen 17 kn:hen
Lämpötila -4°C
Kosteus 86%
Ilmanpaine 1018 hPa
Näkyvyys: 2.4 km
Hajonneita pilviä 900 ft:n korkeudessa
Pilvistä 2400 ft:n korkeudessa
heikkoa lumisadetta

METAR: CYKQ 231400Z 32009G17KT 1 1/2SM -SN BKN009 OVC024 M04/M06 A3005 RMK SF5NS3 LAST STFD OBS/NEXT 251400UTC SLP180

Aika: 05:09 (10:09 UTC)


TAF: puuttuu

Säähavainnot ja -ennusteet yli 4000 lentoasemalta (METAR- ja TAF-raportit).

Käytössä olevat sääasemat on merkitty karttaan keltaisilla ja punaisilla pisteillä.

Aseta hiiri pisteen päälle nähdäksesi sääaseman nimen.

Klikkaa sitten nähdäksesi säähavainnot ja -ennusteet.

Kartan vaihtaminen: klikkaa mustalla rastilla varustettuja vihreitä pisteitä, niin voit zoomata sisään; viivalla varustettua vihreää pistettä, niin voit zoomata ulos tai vihreitä nuolia, niin pääset viereisille kartoille.


METAR-TAF: